sensor_id;sensor_type;location;lat;lon;timestamp;pressure;altitude;pressure_sealevel;temperature
21336;BMP180;10826;52.536;13.432;2023-04-03T00:00:31;102355.00;;;5.70
21336;BMP180;10826;52.536;13.432;2023-04-03T00:03:18;102368.00;;;5.70
21336;BMP180;10826;52.536;13.432;2023-04-03T00:06:04;102317.00;;;5.70
21336;BMP180;10826;52.536;13.432;2023-04-03T00:08:53;102337.00;;;5.70
21336;BMP180;10826;52.536;13.432;2023-04-03T00:11:42;102290.00;;;5.70
21336;BMP180;10826;52.536;13.432;2023-04-03T00:14:28;102301.00;;;5.70
21336;BMP180;10826;52.536;13.432;2023-04-03T00:17:14;102314.00;;;5.70
21336;BMP180;10826;52.536;13.432;2023-04-03T00:20:08;102300.00;;;5.70
21336;BMP180;10826;52.536;13.432;2023-04-03T00:22:55;102376.00;;;5.70
21336;BMP180;10826;52.536;13.432;2023-04-03T00:25:43;102378.00;;;5.70
21336;BMP180;10826;52.536;13.432;2023-04-03T00:28:29;102276.00;;;5.70
21336;BMP180;10826;52.536;13.432;2023-04-03T00:31:16;102320.00;;;5.60
21336;BMP180;10826;52.536;13.432;2023-04-03T00:34:02;102311.00;;;5.70
21336;BMP180;10826;52.536;13.432;2023-04-03T00:36:48;102367.00;;;5.60
21336;BMP180;10826;52.536;13.432;2023-04-03T00:39:34;102374.00;;;5.60
21336;BMP180;10826;52.536;13.432;2023-04-03T00:42:20;102322.00;;;5.60
21336;BMP180;10826;52.536;13.432;2023-04-03T00:48:07;102321.00;;;5.60
21336;BMP180;10826;52.536;13.432;2023-04-03T00:50:54;102322.00;;;5.50
21336;BMP180;10826;52.536;13.432;2023-04-03T00:53:48;102373.00;;;5.50
21336;BMP180;10826;52.536;13.432;2023-04-03T00:56:36;102354.00;;;5.50
21336;BMP180;10826;52.536;13.432;2023-04-03T00:59:28;102328.00;;;5.50
21336;BMP180;10826;52.536;13.432;2023-04-03T01:02:16;102289.00;;;5.50
21336;BMP180;10826;52.536;13.432;2023-04-03T01:05:02;102301.00;;;5.40
21336;BMP180;10826;52.536;13.432;2023-04-03T01:07:52;102314.00;;;5.40
21336;BMP180;10826;52.536;13.432;2023-04-03T01:10:38;102313.00;;;5.30
21336;BMP180;10826;52.536;13.432;2023-04-03T01:13:32;102329.00;;;5.30
21336;BMP180;10826;52.536;13.432;2023-04-03T01:16:25;102312.00;;;5.30
21336;BMP180;10826;52.536;13.432;2023-04-03T01:19:16;102300.00;;;5.30
21336;BMP180;10826;52.536;13.432;2023-04-03T01:22:19;102369.00;;;5.20
21336;BMP180;10826;52.536;13.432;2023-04-03T01:25:11;102339.00;;;5.20
21336;BMP180;10826;52.536;13.432;2023-04-03T01:27:57;102326.00;;;5.10
21336;BMP180;10826;52.536;13.432;2023-04-03T01:31:25;102373.00;;;5.10
21336;BMP180;10826;52.536;13.432;2023-04-03T01:34:12;102328.00;;;5.10
21336;BMP180;10826;52.536;13.432;2023-04-03T01:36:58;102332.00;;;5.00
21336;BMP180;10826;52.536;13.432;2023-04-03T01:39:44;102327.00;;;5.00
21336;BMP180;10826;52.536;13.432;2023-04-03T01:42:30;102345.00;;;5.00
21336;BMP180;10826;52.536;13.432;2023-04-03T01:45:17;102390.00;;;5.00
21336;BMP180;10826;52.536;13.432;2023-04-03T01:48:04;102354.00;;;4.90
21336;BMP180;10826;52.536;13.432;2023-04-03T01:50:50;102297.00;;;4.90
21336;BMP180;10826;52.536;13.432;2023-04-03T01:53:37;102327.00;;;4.90
21336;BMP180;10826;52.536;13.432;2023-04-03T01:56:23;102328.00;;;4.90
21336;BMP180;10826;52.536;13.432;2023-04-03T01:59:10;102342.00;;;4.80
21336;BMP180;10826;52.536;13.432;2023-04-03T02:01:56;102388.00;;;4.80
21336;BMP180;10826;52.536;13.432;2023-04-03T02:04:42;102331.00;;;4.80
21336;BMP180;10826;52.536;13.432;2023-04-03T02:07:27;102287.00;;;4.70
21336;BMP180;10826;52.536;13.432;2023-04-03T02:10:25;102400.00;;;4.80
21336;BMP180;10826;52.536;13.432;2023-04-03T02:13:11;102335.00;;;4.70
21336;BMP180;10826;52.536;13.432;2023-04-03T02:15:57;102389.00;;;4.70
21336;BMP180;10826;52.536;13.432;2023-04-03T02:18:42;102351.00;;;4.70
21336;BMP180;10826;52.536;13.432;2023-04-03T02:21:28;102320.00;;;4.60
21336;BMP180;10826;52.536;13.432;2023-04-03T02:24:15;102407.00;;;4.60
21336;BMP180;10826;52.536;13.432;2023-04-03T02:27:00;102372.00;;;4.60
21336;BMP180;10826;52.536;13.432;2023-04-03T02:29:46;102317.00;;;4.60
21336;BMP180;10826;52.536;13.432;2023-04-03T02:32:32;102356.00;;;4.60
21336;BMP180;10826;52.536;13.432;2023-04-03T02:35:18;102414.00;;;4.50
21336;BMP180;10826;52.536;13.432;2023-04-03T02:38:05;102359.00;;;4.50
21336;BMP180;10826;52.536;13.432;2023-04-03T02:41:01;102416.00;;;4.50
21336;BMP180;10826;52.536;13.432;2023-04-03T02:43:47;102344.00;;;4.50
21336;BMP180;10826;52.536;13.432;2023-04-03T02:46:34;102364.00;;;4.50
21336;BMP180;10826;52.536;13.432;2023-04-03T02:49:20;102402.00;;;4.50
21336;BMP180;10826;52.536;13.432;2023-04-03T02:52:06;102313.00;;;4.50
21336;BMP180;10826;52.536;13.432;2023-04-03T02:54:52;102410.00;;;4.50
21336;BMP180;10826;52.536;13.432;2023-04-03T02:57:38;102382.00;;;4.50
21336;BMP180;10826;52.536;13.432;2023-04-03T03:00:25;102391.00;;;4.50
21336;BMP180;10826;52.536;13.432;2023-04-03T03:03:11;102397.00;;;4.50
21336;BMP180;10826;52.536;13.432;2023-04-03T03:06:11;102432.00;;;4.50
21336;BMP180;10826;52.536;13.432;2023-04-03T03:08:58;102370.00;;;4.40
21336;BMP180;10826;52.536;13.432;2023-04-03T03:11:44;102425.00;;;4.50
21336;BMP180;10826;52.536;13.432;2023-04-03T03:14:30;102383.00;;;4.40
21336;BMP180;10826;52.536;13.432;2023-04-03T03:17:17;102381.00;;;4.40
21336;BMP180;10826;52.536;13.432;2023-04-03T03:20:04;102432.00;;;4.40
21336;BMP180;10826;52.536;13.432;2023-04-03T03:22:50;102449.00;;;4.40
21336;BMP180;10826;52.536;13.432;2023-04-03T03:25:40;102435.00;;;4.40
21336;BMP180;10826;52.536;13.432;2023-04-03T03:28:26;102412.00;;;4.40
21336;BMP180;10826;52.536;13.432;2023-04-03T03:31:12;102415.00;;;4.40
21336;BMP180;10826;52.536;13.432;2023-04-03T03:33:59;102430.00;;;4.40
21336;BMP180;10826;52.536;13.432;2023-04-03T03:36:49;102369.00;;;4.40
21336;BMP180;10826;52.536;13.432;2023-04-03T03:39:35;102332.00;;;4.40
21336;BMP180;10826;52.536;13.432;2023-04-03T03:42:21;102396.00;;;4.40
21336;BMP180;10826;52.536;13.432;2023-04-03T03:45:09;102358.00;;;4.40
21336;BMP180;10826;52.536;13.432;2023-04-03T03:47:55;102388.00;;;4.40
21336;BMP180;10826;52.536;13.432;2023-04-03T03:50:41;102448.00;;;4.40
21336;BMP180;10826;52.536;13.432;2023-04-03T03:53:27;102339.00;;;4.40
21336;BMP180;10826;52.536;13.432;2023-04-03T03:56:15;102439.00;;;4.40
21336;BMP180;10826;52.536;13.432;2023-04-03T03:59:01;102431.00;;;4.40
21336;BMP180;10826;52.536;13.432;2023-04-03T04:01:47;102447.00;;;4.40
21336;BMP180;10826;52.536;13.432;2023-04-03T04:04:33;102439.00;;;4.30
21336;BMP180;10826;52.536;13.432;2023-04-03T04:07:19;102446.00;;;4.40
21336;BMP180;10826;52.536;13.432;2023-04-03T04:10:06;102429.00;;;4.50
21336;BMP180;10826;52.536;13.432;2023-04-03T04:12:53;102378.00;;;4.40
21336;BMP180;10826;52.536;13.432;2023-04-03T04:15:39;102444.00;;;4.40
21336;BMP180;10826;52.536;13.432;2023-04-03T04:18:26;102444.00;;;4.50
21336;BMP180;10826;52.536;13.432;2023-04-03T04:21:11;102442.00;;;4.50
21336;BMP180;10826;52.536;13.432;2023-04-03T04:23:57;102456.00;;;4.50
21336;BMP180;10826;52.536;13.432;2023-04-03T04:26:43;102448.00;;;4.50
21336;BMP180;10826;52.536;13.432;2023-04-03T04:29:29;102420.00;;;4.50
21336;BMP180;10826;52.536;13.432;2023-04-03T04:32:23;102419.00;;;4.50
21336;BMP180;10826;52.536;13.432;2023-04-03T04:35:09;102433.00;;;4.50
21336;BMP180;10826;52.536;13.432;2023-04-03T04:37:55;102434.00;;;4.50
21336;BMP180;10826;52.536;13.432;2023-04-03T04:40:41;102400.00;;;4.50
21336;BMP180;10826;52.536;13.432;2023-04-03T04:43:29;102412.00;;;4.50
21336;BMP180;10826;52.536;13.432;2023-04-03T04:46:15;102397.00;;;4.50
21336;BMP180;10826;52.536;13.432;2023-04-03T04:49:01;102465.00;;;4.50
21336;BMP180;10826;52.536;13.432;2023-04-03T04:51:58;102461.00;;;4.50
21336;BMP180;10826;52.536;13.432;2023-04-03T04:54:44;102454.00;;;4.50
21336;BMP180;10826;52.536;13.432;2023-04-03T04:57:30;102451.00;;;4.50
21336;BMP180;10826;52.536;13.432;2023-04-03T05:00:17;102467.00;;;4.50
21336;BMP180;10826;52.536;13.432;2023-04-03T05:03:04;102470.00;;;4.40
21336;BMP180;10826;52.536;13.432;2023-04-03T05:05:50;102427.00;;;4.50
21336;BMP180;10826;52.536;13.432;2023-04-03T05:08:36;102470.00;;;4.70
21336;BMP180;10826;52.536;13.432;2023-04-03T05:11:22;102470.00;;;4.70
21336;BMP180;10826;52.536;13.432;2023-04-03T05:14:08;102471.00;;;4.70
21336;BMP180;10826;52.536;13.432;2023-04-03T05:16:57;102423.00;;;4.70
21336;BMP180;10826;52.536;13.432;2023-04-03T05:19:43;102486.00;;;4.80
21336;BMP180;10826;52.536;13.432;2023-04-03T05:22:30;102489.00;;;4.80
21336;BMP180;10826;52.536;13.432;2023-04-03T05:25:19;102383.00;;;4.20
21336;BMP180;10826;52.536;13.432;2023-04-03T05:28:06;102490.00;;;4.80
21336;BMP180;10826;52.536;13.432;2023-04-03T05:30:54;102467.00;;;4.90
21336;BMP180;10826;52.536;13.432;2023-04-03T05:33:44;102480.00;;;4.90
21336;BMP180;10826;52.536;13.432;2023-04-03T05:36:31;102492.00;;;4.90
21336;BMP180;10826;52.536;13.432;2023-04-03T05:39:23;102491.00;;;5.00
21336;BMP180;10826;52.536;13.432;2023-04-03T05:42:09;102491.00;;;5.10
21336;BMP180;10826;52.536;13.432;2023-04-03T05:45:00;102493.00;;;5.10
21336;BMP180;10826;52.536;13.432;2023-04-03T05:47:45;102491.00;;;5.20
21336;BMP180;10826;52.536;13.432;2023-04-03T05:50:32;102484.00;;;5.30
21336;BMP180;10826;52.536;13.432;2023-04-03T05:53:27;102501.00;;;5.40
21336;BMP180;10826;52.536;13.432;2023-04-03T05:56:15;102503.00;;;5.60
21336;BMP180;10826;52.536;13.432;2023-04-03T05:59:01;102493.00;;;5.60
21336;BMP180;10826;52.536;13.432;2023-04-03T06:01:48;102506.00;;;5.70
21336;BMP180;10826;52.536;13.432;2023-04-03T06:04:35;102489.00;;;5.90
21336;BMP180;10826;52.536;13.432;2023-04-03T06:07:24;102478.00;;;6.00
21336;BMP180;10826;52.536;13.432;2023-04-03T06:10:13;102443.00;;;6.10
21336;BMP180;10826;52.536;13.432;2023-04-03T06:12:59;102427.00;;;6.30
21336;BMP180;10826;52.536;13.432;2023-04-03T06:15:47;102492.00;;;6.70
21336;BMP180;10826;52.536;13.432;2023-04-03T06:18:34;102453.00;;;7.30
21336;BMP180;10826;52.536;13.432;2023-04-03T06:21:20;102512.00;;;8.20
21336;BMP180;10826;52.536;13.432;2023-04-03T06:24:07;102511.00;;;9.10
21336;BMP180;10826;52.536;13.432;2023-04-03T06:26:53;102477.00;;;10.30
21336;BMP180;10826;52.536;13.432;2023-04-03T06:29:39;102473.00;;;11.40
21336;BMP180;10826;52.536;13.432;2023-04-03T06:32:25;102496.00;;;12.40
21336;BMP180;10826;52.536;13.432;2023-04-03T06:35:12;102500.00;;;13.40
21336;BMP180;10826;52.536;13.432;2023-04-03T06:37:58;102472.00;;;14.50
21336;BMP180;10826;52.536;13.432;2023-04-03T06:40:44;102470.00;;;15.30
21336;BMP180;10826;52.536;13.432;2023-04-03T06:43:30;102506.00;;;15.90
21336;BMP180;10826;52.536;13.432;2023-04-03T06:46:21;102507.00;;;16.50
21336;BMP180;10826;52.536;13.432;2023-04-03T06:49:08;102511.00;;;16.70
21336;BMP180;10826;52.536;13.432;2023-04-03T06:51:55;102461.00;;;17.10
21336;BMP180;10826;52.536;13.432;2023-04-03T06:54:42;102499.00;;;17.40
21336;BMP180;10826;52.536;13.432;2023-04-03T06:57:27;102541.00;;;17.80
21336;BMP180;10826;52.536;13.432;2023-04-03T07:00:14;102523.00;;;17.90
21336;BMP180;10826;52.536;13.432;2023-04-03T07:03:01;102484.00;;;17.50
21336;BMP180;10826;52.536;13.432;2023-04-03T07:05:49;102500.00;;;16.90
21336;BMP180;10826;52.536;13.432;2023-04-03T07:08:35;102556.00;;;15.70
21336;BMP180;10826;52.536;13.432;2023-04-03T07:11:21;102555.00;;;15.50
21336;BMP180;10826;52.536;13.432;2023-04-03T07:14:08;102532.00;;;14.90
21336;BMP180;10826;52.536;13.432;2023-04-03T07:16:54;102519.00;;;14.50
21336;BMP180;10826;52.536;13.432;2023-04-03T07:19:40;102513.00;;;14.00
21336;BMP180;10826;52.536;13.432;2023-04-03T07:22:26;102519.00;;;13.60
21336;BMP180;10826;52.536;13.432;2023-04-03T07:25:12;102534.00;;;13.60
21336;BMP180;10826;52.536;13.432;2023-04-03T07:27:58;102544.00;;;13.80
21336;BMP180;10826;52.536;13.432;2023-04-03T07:31:02;102539.00;;;14.10
21336;BMP180;10826;52.536;13.432;2023-04-03T07:33:57;102562.00;;;14.30
21336;BMP180;10826;52.536;13.432;2023-04-03T07:36:44;102554.00;;;14.40
21336;BMP180;10826;52.536;13.432;2023-04-03T07:39:30;102520.00;;;14.40
21336;BMP180;10826;52.536;13.432;2023-04-03T07:42:16;102521.00;;;14.50
21336;BMP180;10826;52.536;13.432;2023-04-03T07:45:04;102573.00;;;14.50
21336;BMP180;10826;52.536;13.432;2023-04-03T07:47:50;102571.00;;;14.30
21336;BMP180;10826;52.536;13.432;2023-04-03T07:50:40;102518.00;;;14.10
21336;BMP180;10826;52.536;13.432;2023-04-03T07:53:29;102508.00;;;14.00
21336;BMP180;10826;52.536;13.432;2023-04-03T07:56:16;102576.00;;;14.00
21336;BMP180;10826;52.536;13.432;2023-04-03T07:59:04;102569.00;;;13.90
21336;BMP180;10826;52.536;13.432;2023-04-03T08:01:50;102523.00;;;13.80
21336;BMP180;10826;52.536;13.432;2023-04-03T08:04:37;102543.00;;;13.60
21336;BMP180;10826;52.536;13.432;2023-04-03T08:07:23;102558.00;;;13.20
21336;BMP180;10826;52.536;13.432;2023-04-03T08:10:09;102572.00;;;12.80
21336;BMP180;10826;52.536;13.432;2023-04-03T08:12:57;102565.00;;;12.70
21336;BMP180;10826;52.536;13.432;2023-04-03T08:15:43;102558.00;;;12.70
21336;BMP180;10826;52.536;13.432;2023-04-03T08:18:29;102572.00;;;12.90
21336;BMP180;10826;52.536;13.432;2023-04-03T08:21:16;102552.00;;;13.20
21336;BMP180;10826;52.536;13.432;2023-04-03T08:24:05;102543.00;;;13.70
21336;BMP180;10826;52.536;13.432;2023-04-03T08:26:51;102550.00;;;14.20
21336;BMP180;10826;52.536;13.432;2023-04-03T08:29:37;102558.00;;;14.40
21336;BMP180;10826;52.536;13.432;2023-04-03T08:32:24;102584.00;;;14.50
21336;BMP180;10826;52.536;13.432;2023-04-03T08:35:13;102563.00;;;14.60
21336;BMP180;10826;52.536;13.432;2023-04-03T08:37:59;102547.00;;;14.40
21336;BMP180;10826;52.536;13.432;2023-04-03T08:40:45;102530.00;;;14.10
21336;BMP180;10826;52.536;13.432;2023-04-03T08:43:46;102570.00;;;13.70
21336;BMP180;10826;52.536;13.432;2023-04-03T08:47:17;102519.00;;;13.10
21336;BMP180;10826;52.536;13.432;2023-04-03T08:50:41;102529.00;;;12.60
21336;BMP180;10826;52.536;13.432;2023-04-03T08:53:25;102570.00;;;12.30
21336;BMP180;10826;52.536;13.432;2023-04-03T08:56:16;102576.00;;;12.20
21336;BMP180;10826;52.536;13.432;2023-04-03T08:59:14;102568.00;;;12.10
21336;BMP180;10826;52.536;13.432;2023-04-03T09:02:37;102546.00;;;12.20
21336;BMP180;10826;52.536;13.432;2023-04-03T09:08:39;102531.00;;;12.20
21336;BMP180;10826;52.536;13.432;2023-04-03T09:12:10;102561.00;;;11.90
21336;BMP180;10826;52.536;13.432;2023-04-03T09:15:17;102568.00;;;12.00
21336;BMP180;10826;52.536;13.432;2023-04-03T09:18:20;102554.00;;;12.20
21336;BMP180;10826;52.536;13.432;2023-04-03T09:21:25;102578.00;;;12.20
21336;BMP180;10826;52.536;13.432;2023-04-03T09:24:18;102565.00;;;12.30
21336;BMP180;10826;52.536;13.432;2023-04-03T09:27:09;102569.00;;;12.20
21336;BMP180;10826;52.536;13.432;2023-04-03T09:29:57;102527.00;;;12.10
21336;BMP180;10826;52.536;13.432;2023-04-03T09:32:57;102564.00;;;12.00
21336;BMP180;10826;52.536;13.432;2023-04-03T09:35:43;102578.00;;;12.00
21336;BMP180;10826;52.536;13.432;2023-04-03T09:38:39;102526.00;;;12.40
21336;BMP180;10826;52.536;13.432;2023-04-03T09:41:25;102549.00;;;12.80
21336;BMP180;10826;52.536;13.432;2023-04-03T09:44:24;102536.00;;;13.00
21336;BMP180;10826;52.536;13.432;2023-04-03T09:47:30;102493.00;;;13.00
21336;BMP180;10826;52.536;13.432;2023-04-03T09:50:34;102548.00;;;13.10
21336;BMP180;10826;52.536;13.432;2023-04-03T09:53:44;102557.00;;;13.20
21336;BMP180;10826;52.536;13.432;2023-04-03T09:56:31;102564.00;;;13.10
21336;BMP180;10826;52.536;13.432;2023-04-03T09:59:17;102538.00;;;13.10
21336;BMP180;10826;52.536;13.432;2023-04-03T10:02:36;102517.00;;;13.20
21336;BMP180;10826;52.536;13.432;2023-04-03T10:05:34;102550.00;;;13.10
21336;BMP180;10826;52.536;13.432;2023-04-03T10:08:31;102537.00;;;13.30
21336;BMP180;10826;52.536;13.432;2023-04-03T10:11:18;102528.00;;;13.60
21336;BMP180;10826;52.536;13.432;2023-04-03T10:14:16;102536.00;;;13.80
21336;BMP180;10826;52.536;13.432;2023-04-03T10:17:31;102519.00;;;13.80
21336;BMP180;10826;52.536;13.432;2023-04-03T10:20:43;102537.00;;;13.80
21336;BMP180;10826;52.536;13.432;2023-04-03T10:23:51;102498.00;;;13.80
21336;BMP180;10826;52.536;13.432;2023-04-03T10:30:08;102526.00;;;13.60
21336;BMP180;10826;52.536;13.432;2023-04-03T10:36:42;102517.00;;;13.60
21336;BMP180;10826;52.536;13.432;2023-04-03T10:39:45;102504.00;;;13.40
21336;BMP180;10826;52.536;13.432;2023-04-03T10:42:46;102521.00;;;13.20
21336;BMP180;10826;52.536;13.432;2023-04-03T10:45:55;102491.00;;;13.00
21336;BMP180;10826;52.536;13.432;2023-04-03T10:49:00;102512.00;;;12.80
21336;BMP180;10826;52.536;13.432;2023-04-03T10:52:11;102527.00;;;12.60
21336;BMP180;10826;52.536;13.432;2023-04-03T10:55:38;102520.00;;;12.50
21336;BMP180;10826;52.536;13.432;2023-04-03T11:02:32;102526.00;;;12.20
21336;BMP180;10826;52.536;13.432;2023-04-03T11:05:39;102516.00;;;12.20
21336;BMP180;10826;52.536;13.432;2023-04-03T11:08:39;102431.00;;;12.20
21336;BMP180;10826;52.536;13.432;2023-04-03T11:11:31;102529.00;;;12.00
21336;BMP180;10826;52.536;13.432;2023-04-03T11:14:34;102493.00;;;12.00
21336;BMP180;10826;52.536;13.432;2023-04-03T11:17:36;102492.00;;;12.10
21336;BMP180;10826;52.536;13.432;2023-04-03T11:20:29;102512.00;;;12.10
21336;BMP180;10826;52.536;13.432;2023-04-03T11:23:25;102448.00;;;12.00
21336;BMP180;10826;52.536;13.432;2023-04-03T11:26:19;102515.00;;;12.10
21336;BMP180;10826;52.536;13.432;2023-04-03T11:29:14;102499.00;;;12.10
21336;BMP180;10826;52.536;13.432;2023-04-03T11:35:27;102505.00;;;12.00
21336;BMP180;10826;52.536;13.432;2023-04-03T11:38:36;102507.00;;;12.10
21336;BMP180;10826;52.536;13.432;2023-04-03T11:41:31;102492.00;;;12.10
21336;BMP180;10826;52.536;13.432;2023-04-03T11:44:35;102458.00;;;12.20
21336;BMP180;10826;52.536;13.432;2023-04-03T11:47:48;102476.00;;;12.30
21336;BMP180;10826;52.536;13.432;2023-04-03T11:50:43;102503.00;;;12.30
21336;BMP180;10826;52.536;13.432;2023-04-03T11:53:58;102503.00;;;12.30
21336;BMP180;10826;52.536;13.432;2023-04-03T11:57:43;102497.00;;;12.10
21336;BMP180;10826;52.536;13.432;2023-04-03T12:09:28;102490.00;;;12.80
21336;BMP180;10826;52.536;13.432;2023-04-03T12:12:38;102491.00;;;13.10
21336;BMP180;10826;52.536;13.432;2023-04-03T12:15:44;102485.00;;;13.30
21336;BMP180;10826;52.536;13.432;2023-04-03T12:22:06;102483.00;;;13.70
21336;BMP180;10826;52.536;13.432;2023-04-03T12:24:53;102461.00;;;13.70
21336;BMP180;10826;52.536;13.432;2023-04-03T12:27:42;102478.00;;;13.70
21336;BMP180;10826;52.536;13.432;2023-04-03T12:30:30;102448.00;;;13.70
21336;BMP180;10826;52.536;13.432;2023-04-03T12:37:06;102484.00;;;13.50
21336;BMP180;10826;52.536;13.432;2023-04-03T12:43:42;102478.00;;;13.10
21336;BMP180;10826;52.536;13.432;2023-04-03T12:46:45;102435.00;;;12.90
21336;BMP180;10826;52.536;13.432;2023-04-03T12:49:39;102475.00;;;12.80
21336;BMP180;10826;52.536;13.432;2023-04-03T12:52:41;102478.00;;;12.70
21336;BMP180;10826;52.536;13.432;2023-04-03T12:55:30;102467.00;;;12.70
21336;BMP180;10826;52.536;13.432;2023-04-03T12:58:25;102471.00;;;12.60
21336;BMP180;10826;52.536;13.432;2023-04-03T13:01:16;102467.00;;;12.70
21336;BMP180;10826;52.536;13.432;2023-04-03T13:04:04;102457.00;;;12.80
21336;BMP180;10826;52.536;13.432;2023-04-03T13:06:51;102460.00;;;12.70
21336;BMP180;10826;52.536;13.432;2023-04-03T13:09:37;102467.00;;;12.70
21336;BMP180;10826;52.536;13.432;2023-04-03T13:12:23;102479.00;;;12.50
21336;BMP180;10826;52.536;13.432;2023-04-03T13:15:23;102475.00;;;12.40
21336;BMP180;10826;52.536;13.432;2023-04-03T13:18:34;102470.00;;;12.40
21336;BMP180;10826;52.536;13.432;2023-04-03T13:21:34;102452.00;;;12.20
21336;BMP180;10826;52.536;13.432;2023-04-03T13:24:20;102437.00;;;12.00
21336;BMP180;10826;52.536;13.432;2023-04-03T13:27:07;102397.00;;;11.90
21336;BMP180;10826;52.536;13.432;2023-04-03T13:29:57;102431.00;;;11.90
21336;BMP180;10826;52.536;13.432;2023-04-03T13:32:44;102448.00;;;11.80
21336;BMP180;10826;52.536;13.432;2023-04-03T13:35:38;102472.00;;;11.70
21336;BMP180;10826;52.536;13.432;2023-04-03T13:38:30;102462.00;;;11.70
21336;BMP180;10826;52.536;13.432;2023-04-03T13:41:44;102459.00;;;11.60
21336;BMP180;10826;52.536;13.432;2023-04-03T13:44:35;102464.00;;;11.50
21336;BMP180;10826;52.536;13.432;2023-04-03T13:47:23;102472.00;;;11.70
21336;BMP180;10826;52.536;13.432;2023-04-03T13:50:22;102456.00;;;11.90
21336;BMP180;10826;52.536;13.432;2023-04-03T13:53:13;102454.00;;;11.80
21336;BMP180;10826;52.536;13.432;2023-04-03T13:56:17;102423.00;;;12.10
21336;BMP180;10826;52.536;13.432;2023-04-03T14:04:54;102446.00;;;12.20
21336;BMP180;10826;52.536;13.432;2023-04-03T14:07:43;102444.00;;;12.20
21336;BMP180;10826;52.536;13.432;2023-04-03T14:10:30;102462.00;;;12.10
21336;BMP180;10826;52.536;13.432;2023-04-03T14:13:20;102442.00;;;12.10
21336;BMP180;10826;52.536;13.432;2023-04-03T14:16:06;102423.00;;;12.00
21336;BMP180;10826;52.536;13.432;2023-04-03T14:18:52;102398.00;;;12.00
21336;BMP180;10826;52.536;13.432;2023-04-03T14:21:38;102403.00;;;11.90
21336;BMP180;10826;52.536;13.432;2023-04-03T14:24:26;102416.00;;;11.80
21336;BMP180;10826;52.536;13.432;2023-04-03T14:27:22;102416.00;;;11.70
21336;BMP180;10826;52.536;13.432;2023-04-03T14:30:31;102403.00;;;11.60
21336;BMP180;10826;52.536;13.432;2023-04-03T14:33:21;102398.00;;;11.50
21336;BMP180;10826;52.536;13.432;2023-04-03T14:36:17;102430.00;;;11.50
21336;BMP180;10826;52.536;13.432;2023-04-03T14:39:05;102445.00;;;11.30
21336;BMP180;10826;52.536;13.432;2023-04-03T14:41:52;102411.00;;;11.30
21336;BMP180;10826;52.536;13.432;2023-04-03T14:44:38;102414.00;;;11.20
21336;BMP180;10826;52.536;13.432;2023-04-03T14:47:28;102443.00;;;11.00
21336;BMP180;10826;52.536;13.432;2023-04-03T14:50:21;102404.00;;;10.90
21336;BMP180;10826;52.536;13.432;2023-04-03T14:53:11;102441.00;;;10.80
21336;BMP180;10826;52.536;13.432;2023-04-03T14:55:58;102416.00;;;10.60
21336;BMP180;10826;52.536;13.432;2023-04-03T14:58:44;102412.00;;;10.60
21336;BMP180;10826;52.536;13.432;2023-04-03T15:01:46;102388.00;;;10.50
21336;BMP180;10826;52.536;13.432;2023-04-03T15:04:32;102390.00;;;10.40
21336;BMP180;10826;52.536;13.432;2023-04-03T15:07:25;102427.00;;;10.50
21336;BMP180;10826;52.536;13.432;2023-04-03T15:10:21;102430.00;;;10.50
21336;BMP180;10826;52.536;13.432;2023-04-03T15:13:11;102424.00;;;10.50
21336;BMP180;10826;52.536;13.432;2023-04-03T15:15:58;102400.00;;;10.50
21336;BMP180;10826;52.536;13.432;2023-04-03T15:18:45;102437.00;;;10.60
21336;BMP180;10826;52.536;13.432;2023-04-03T15:21:32;102387.00;;;10.70
21336;BMP180;10826;52.536;13.432;2023-04-03T15:24:21;102387.00;;;10.80
21336;BMP180;10826;52.536;13.432;2023-04-03T15:27:08;102398.00;;;10.70
21336;BMP180;10826;52.536;13.432;2023-04-03T15:30:07;102423.00;;;10.60
21336;BMP180;10826;52.536;13.432;2023-04-03T15:32:53;102385.00;;;10.50
21336;BMP180;10826;52.536;13.432;2023-04-03T15:35:39;102377.00;;;10.40
21336;BMP180;10826;52.536;13.432;2023-04-03T15:38:26;102408.00;;;10.20
21336;BMP180;10826;52.536;13.432;2023-04-03T15:41:17;102358.00;;;10.20
21336;BMP180;10826;52.536;13.432;2023-04-03T15:44:03;102402.00;;;10.10
21336;BMP180;10826;52.536;13.432;2023-04-03T15:46:49;102375.00;;;10.20
21336;BMP180;10826;52.536;13.432;2023-04-03T15:49:40;102385.00;;;10.30
21336;BMP180;10826;52.536;13.432;2023-04-03T15:52:26;102384.00;;;10.20
21336;BMP180;10826;52.536;13.432;2023-04-03T15:55:14;102357.00;;;10.50
21336;BMP180;10826;52.536;13.432;2023-04-03T15:58:01;102350.00;;;10.50
21336;BMP180;10826;52.536;13.432;2023-04-03T16:00:47;102343.00;;;10.50
21336;BMP180;10826;52.536;13.432;2023-04-03T16:03:33;102371.00;;;10.50
21336;BMP180;10826;52.536;13.432;2023-04-03T16:06:19;102412.00;;;10.50
21336;BMP180;10826;52.536;13.432;2023-04-03T16:09:07;102416.00;;;10.30
21336;BMP180;10826;52.536;13.432;2023-04-03T16:11:53;102334.00;;;10.30
21336;BMP180;10826;52.536;13.432;2023-04-03T16:14:39;102350.00;;;10.30
21336;BMP180;10826;52.536;13.432;2023-04-03T16:17:27;102426.00;;;10.30
21336;BMP180;10826;52.536;13.432;2023-04-03T16:20:14;102357.00;;;10.30
21336;BMP180;10826;52.536;13.432;2023-04-03T16:23:01;102421.00;;;10.30
21336;BMP180;10826;52.536;13.432;2023-04-03T16:25:48;102405.00;;;10.20
21336;BMP180;10826;52.536;13.432;2023-04-03T16:28:35;102385.00;;;10.20
21336;BMP180;10826;52.536;13.432;2023-04-03T16:31:23;102420.00;;;10.20
21336;BMP180;10826;52.536;13.432;2023-04-03T16:34:10;102423.00;;;10.10
21336;BMP180;10826;52.536;13.432;2023-04-03T16:36:56;102374.00;;;10.10
21336;BMP180;10826;52.536;13.432;2023-04-03T16:39:43;102372.00;;;10.10
21336;BMP180;10826;52.536;13.432;2023-04-03T16:42:29;102372.00;;;10.10
21336;BMP180;10826;52.536;13.432;2023-04-03T16:45:15;102389.00;;;10.20
21336;BMP180;10826;52.536;13.432;2023-04-03T16:48:01;102347.00;;;10.20